sensor_id;sensor_type;location;lat;lon;timestamp;P1;durP1;ratioP1;P2;durP2;ratioP2
35518;SDS011;21627;48.216;16.482;2022-10-16T00:01:36;39.40;;;25.58;;
35518;SDS011;21627;48.216;16.482;2022-10-16T00:04:05;38.38;;;25.58;;
35518;SDS011;21627;48.216;16.482;2022-10-16T00:06:32;37.88;;;24.73;;
35518;SDS011;21627;48.216;16.482;2022-10-16T00:09:04;37.83;;;24.20;;
35518;SDS011;21627;48.216;16.482;2022-10-16T00:11:33;42.42;;;25.55;;
35518;SDS011;21627;48.216;16.482;2022-10-16T00:14:04;40.65;;;25.58;;
35518;SDS011;21627;48.216;16.482;2022-10-16T00:16:38;36.50;;;24.88;;
35518;SDS011;21627;48.216;16.482;2022-10-16T00:19:05;37.33;;;24.00;;
35518;SDS011;21627;48.216;16.482;2022-10-16T00:21:33;51.42;;;24.95;;
35518;SDS011;21627;48.216;16.482;2022-10-16T00:24:02;40.38;;;26.08;;
35518;SDS011;21627;48.216;16.482;2022-10-16T00:26:32;38.05;;;25.63;;
35518;SDS011;21627;48.216;16.482;2022-10-16T00:29:01;37.53;;;24.73;;
35518;SDS011;21627;48.216;16.482;2022-10-16T00:31:29;36.00;;;23.35;;
35518;SDS011;21627;48.216;16.482;2022-10-16T00:33:57;35.97;;;22.35;;
35518;SDS011;21627;48.216;16.482;2022-10-16T00:36:25;32.70;;;21.13;;
35518;SDS011;21627;48.216;16.482;2022-10-16T00:38:53;35.42;;;23.15;;
35518;SDS011;21627;48.216;16.482;2022-10-16T00:41:23;37.88;;;25.30;;
35518;SDS011;21627;48.216;16.482;2022-10-16T00:43:55;35.65;;;22.55;;
35518;SDS011;21627;48.216;16.482;2022-10-16T00:46:28;35.40;;;23.10;;
35518;SDS011;21627;48.216;16.482;2022-10-16T00:49:10;31.35;;;21.10;;
35518;SDS011;21627;48.216;16.482;2022-10-16T00:51:49;28.15;;;20.48;;
35518;SDS011;21627;48.216;16.482;2022-10-16T00:54:23;29.20;;;20.77;;
35518;SDS011;21627;48.216;16.482;2022-10-16T00:56:58;26.80;;;19.27;;
35518;SDS011;21627;48.216;16.482;2022-10-16T00:59:31;26.80;;;18.95;;
35518;SDS011;21627;48.216;16.482;2022-10-16T01:02:03;26.42;;;19.15;;
35518;SDS011;21627;48.216;16.482;2022-10-16T01:04:39;26.13;;;17.63;;
35518;SDS011;21627;48.216;16.482;2022-10-16T01:07:16;28.40;;;18.10;;
35518;SDS011;21627;48.216;16.482;2022-10-16T01:09:54;23.30;;;17.75;;
35518;SDS011;21627;48.216;16.482;2022-10-16T01:12:56;23.48;;;17.77;;
35518;SDS011;21627;48.216;16.482;2022-10-16T01:15:34;24.20;;;17.13;;
35518;SDS011;21627;48.216;16.482;2022-10-16T01:18:46;20.58;;;15.68;;
35518;SDS011;21627;48.216;16.482;2022-10-16T01:21:35;26.80;;;17.58;;
35518;SDS011;21627;48.216;16.482;2022-10-16T01:29:49;26.63;;;18.48;;
35518;SDS011;21627;48.216;16.482;2022-10-16T01:32:41;35.75;;;20.48;;
35518;SDS011;21627;48.216;16.482;2022-10-16T01:40:44;29.63;;;20.40;;
35518;SDS011;21627;48.216;16.482;2022-10-16T01:43:19;27.70;;;20.55;;
35518;SDS011;21627;48.216;16.482;2022-10-16T01:46:10;30.77;;;20.35;;
35518;SDS011;21627;48.216;16.482;2022-10-16T01:48:39;29.50;;;19.55;;
35518;SDS011;21627;48.216;16.482;2022-10-16T01:51:11;25.98;;;18.15;;
35518;SDS011;21627;48.216;16.482;2022-10-16T01:53:41;27.48;;;19.67;;
35518;SDS011;21627;48.216;16.482;2022-10-16T01:56:14;29.58;;;20.42;;
35518;SDS011;21627;48.216;16.482;2022-10-16T01:58:45;27.27;;;19.60;;
35518;SDS011;21627;48.216;16.482;2022-10-16T02:01:26;29.95;;;21.70;;
35518;SDS011;21627;48.216;16.482;2022-10-16T02:03:57;29.00;;;20.45;;
35518;SDS011;21627;48.216;16.482;2022-10-16T02:06:29;26.08;;;18.98;;
35518;SDS011;21627;48.216;16.482;2022-10-16T02:08:56;23.95;;;18.25;;
35518;SDS011;21627;48.216;16.482;2022-10-16T02:11:23;29.65;;;20.50;;
35518;SDS011;21627;48.216;16.482;2022-10-16T02:13:53;24.15;;;18.80;;
35518;SDS011;21627;48.216;16.482;2022-10-16T02:16:37;27.63;;;20.10;;
35518;SDS011;21627;48.216;16.482;2022-10-16T02:19:08;26.05;;;19.65;;
35518;SDS011;21627;48.216;16.482;2022-10-16T02:21:43;26.92;;;18.92;;
35518;SDS011;21627;48.216;16.482;2022-10-16T02:24:33;27.33;;;20.17;;
35518;SDS011;21627;48.216;16.482;2022-10-16T02:27:13;24.23;;;18.55;;
35518;SDS011;21627;48.216;16.482;2022-10-16T02:29:53;23.85;;;18.38;;
35518;SDS011;21627;48.216;16.482;2022-10-16T02:32:34;26.45;;;20.73;;
35518;SDS011;21627;48.216;16.482;2022-10-16T02:35:07;25.52;;;18.83;;
35518;SDS011;21627;48.216;16.482;2022-10-16T02:37:35;27.23;;;19.55;;
35518;SDS011;21627;48.216;16.482;2022-10-16T02:40:05;28.65;;;20.13;;
35518;SDS011;21627;48.216;16.482;2022-10-16T02:42:34;31.10;;;22.17;;
35518;SDS011;21627;48.216;16.482;2022-10-16T02:45:08;29.85;;;21.95;;
35518;SDS011;21627;48.216;16.482;2022-10-16T02:47:38;32.90;;;21.70;;
35518;SDS011;21627;48.216;16.482;2022-10-16T02:50:05;27.65;;;19.10;;
35518;SDS011;21627;48.216;16.482;2022-10-16T02:52:32;30.52;;;21.50;;
35518;SDS011;21627;48.216;16.482;2022-10-16T02:55:00;29.13;;;21.48;;
35518;SDS011;21627;48.216;16.482;2022-10-16T02:57:27;30.17;;;21.10;;
35518;SDS011;21627;48.216;16.482;2022-10-16T02:59:54;28.48;;;20.90;;
35518;SDS011;21627;48.216;16.482;2022-10-16T03:02:22;32.58;;;22.35;;
35518;SDS011;21627;48.216;16.482;2022-10-16T03:04:49;27.88;;;19.67;;
35518;SDS011;21627;48.216;16.482;2022-10-16T03:07:16;28.80;;;21.27;;
35518;SDS011;21627;48.216;16.482;2022-10-16T03:09:43;30.58;;;20.83;;
35518;SDS011;21627;48.216;16.482;2022-10-16T03:12:10;27.55;;;19.88;;
35518;SDS011;21627;48.216;16.482;2022-10-16T03:14:38;27.20;;;20.17;;
35518;SDS011;21627;48.216;16.482;2022-10-16T03:17:06;26.42;;;19.70;;
35518;SDS011;21627;48.216;16.482;2022-10-16T03:19:33;27.83;;;19.42;;
35518;SDS011;21627;48.216;16.482;2022-10-16T03:22:02;26.70;;;19.58;;
35518;SDS011;21627;48.216;16.482;2022-10-16T03:24:29;29.92;;;21.38;;
35518;SDS011;21627;48.216;16.482;2022-10-16T03:26:56;29.77;;;21.38;;
35518;SDS011;21627;48.216;16.482;2022-10-16T03:29:24;27.33;;;19.58;;
35518;SDS011;21627;48.216;16.482;2022-10-16T03:31:52;28.42;;;21.42;;
35518;SDS011;21627;48.216;16.482;2022-10-16T03:34:19;33.60;;;21.90;;
35518;SDS011;21627;48.216;16.482;2022-10-16T03:36:46;25.65;;;19.27;;
35518;SDS011;21627;48.216;16.482;2022-10-16T03:39:13;28.58;;;20.30;;
35518;SDS011;21627;48.216;16.482;2022-10-16T03:41:40;26.67;;;19.63;;
35518;SDS011;21627;48.216;16.482;2022-10-16T03:44:07;21.42;;;17.08;;
35518;SDS011;21627;48.216;16.482;2022-10-16T03:46:34;23.80;;;18.42;;
35518;SDS011;21627;48.216;16.482;2022-10-16T03:49:02;37.90;;;19.80;;
35518;SDS011;21627;48.216;16.482;2022-10-16T03:51:34;29.23;;;20.15;;
35518;SDS011;21627;48.216;16.482;2022-10-16T03:54:01;28.35;;;19.95;;
35518;SDS011;21627;48.216;16.482;2022-10-16T03:56:28;28.50;;;20.20;;
35518;SDS011;21627;48.216;16.482;2022-10-16T03:58:55;34.08;;;22.50;;
35518;SDS011;21627;48.216;16.482;2022-10-16T04:01:22;36.42;;;20.95;;
35518;SDS011;21627;48.216;16.482;2022-10-16T04:03:49;31.75;;;21.08;;
35518;SDS011;21627;48.216;16.482;2022-10-16T04:06:16;34.15;;;20.02;;
35518;SDS011;21627;48.216;16.482;2022-10-16T04:08:43;33.20;;;21.77;;
35518;SDS011;21627;48.216;16.482;2022-10-16T04:11:11;30.02;;;22.02;;
35518;SDS011;21627;48.216;16.482;2022-10-16T04:13:38;28.80;;;20.65;;
35518;SDS011;21627;48.216;16.482;2022-10-16T04:16:06;30.10;;;21.55;;
35518;SDS011;21627;48.216;16.482;2022-10-16T04:18:33;28.80;;;21.83;;
35518;SDS011;21627;48.216;16.482;2022-10-16T04:21:02;27.85;;;20.85;;
35518;SDS011;21627;48.216;16.482;2022-10-16T04:23:30;26.92;;;19.85;;
35518;SDS011;21627;48.216;16.482;2022-10-16T04:25:58;29.23;;;20.52;;
35518;SDS011;21627;48.216;16.482;2022-10-16T04:28:27;30.02;;;20.77;;
35518;SDS011;21627;48.216;16.482;2022-10-16T04:30:54;29.15;;;22.52;;
35518;SDS011;21627;48.216;16.482;2022-10-16T04:33:21;29.45;;;21.13;;
35518;SDS011;21627;48.216;16.482;2022-10-16T04:35:48;29.27;;;20.67;;
35518;SDS011;21627;48.216;16.482;2022-10-16T04:38:26;31.63;;;21.05;;
35518;SDS011;21627;48.216;16.482;2022-10-16T04:40:54;29.98;;;21.30;;
35518;SDS011;21627;48.216;16.482;2022-10-16T04:43:21;28.70;;;20.95;;
35518;SDS011;21627;48.216;16.482;2022-10-16T04:45:49;30.85;;;21.30;;
35518;SDS011;21627;48.216;16.482;2022-10-16T04:48:20;28.95;;;20.63;;
35518;SDS011;21627;48.216;16.482;2022-10-16T04:50:48;29.65;;;20.65;;
35518;SDS011;21627;48.216;16.482;2022-10-16T04:53:20;28.75;;;22.05;;
35518;SDS011;21627;48.216;16.482;2022-10-16T04:55:47;32.13;;;22.40;;
35518;SDS011;21627;48.216;16.482;2022-10-16T04:58:14;32.33;;;22.80;;
35518;SDS011;21627;48.216;16.482;2022-10-16T05:00:41;35.95;;;24.27;;
35518;SDS011;21627;48.216;16.482;2022-10-16T05:03:10;35.50;;;23.50;;
35518;SDS011;21627;48.216;16.482;2022-10-16T05:05:42;39.90;;;24.00;;
35518;SDS011;21627;48.216;16.482;2022-10-16T05:08:11;39.55;;;25.63;;
35518;SDS011;21627;48.216;16.482;2022-10-16T05:10:40;37.85;;;25.63;;
35518;SDS011;21627;48.216;16.482;2022-10-16T05:13:10;41.50;;;28.05;;
35518;SDS011;21627;48.216;16.482;2022-10-16T05:15:37;42.65;;;26.30;;
35518;SDS011;21627;48.216;16.482;2022-10-16T05:18:04;37.72;;;25.67;;
35518;SDS011;21627;48.216;16.482;2022-10-16T05:20:31;41.63;;;27.50;;
35518;SDS011;21627;48.216;16.482;2022-10-16T05:22:59;39.20;;;26.83;;
35518;SDS011;21627;48.216;16.482;2022-10-16T05:25:26;42.22;;;28.48;;
35518;SDS011;21627;48.216;16.482;2022-10-16T05:27:53;45.90;;;28.00;;
35518;SDS011;21627;48.216;16.482;2022-10-16T05:30:20;41.58;;;28.25;;
35518;SDS011;21627;48.216;16.482;2022-10-16T05:32:48;41.50;;;28.52;;
35518;SDS011;21627;48.216;16.482;2022-10-16T05:35:16;48.08;;;30.92;;
35518;SDS011;21627;48.216;16.482;2022-10-16T05:37:45;59.90;;;35.40;;
35518;SDS011;21627;48.216;16.482;2022-10-16T05:40:13;79.60;;;39.38;;
35518;SDS011;21627;48.216;16.482;2022-10-16T05:42:41;69.95;;;35.25;;
35518;SDS011;21627;48.216;16.482;2022-10-16T05:45:09;61.22;;;33.97;;
35518;SDS011;21627;48.216;16.482;2022-10-16T05:47:38;73.30;;;37.28;;
35518;SDS011;21627;48.216;16.482;2022-10-16T05:50:06;79.97;;;40.05;;
35518;SDS011;21627;48.216;16.482;2022-10-16T05:52:34;98.78;;;45.95;;
35518;SDS011;21627;48.216;16.482;2022-10-16T05:55:02;99.28;;;43.85;;
35518;SDS011;21627;48.216;16.482;2022-10-16T05:57:30;111.70;;;48.67;;
35518;SDS011;21627;48.216;16.482;2022-10-16T05:59:57;93.07;;;48.15;;
35518;SDS011;21627;48.216;16.482;2022-10-16T06:02:24;125.70;;;53.65;;
35518;SDS011;21627;48.216;16.482;2022-10-16T06:04:51;117.88;;;52.03;;
35518;SDS011;21627;48.216;16.482;2022-10-16T06:07:21;134.82;;;55.25;;
35518;SDS011;21627;48.216;16.482;2022-10-16T06:09:50;108.50;;;51.05;;
35518;SDS011;21627;48.216;16.482;2022-10-16T06:12:19;121.95;;;53.83;;
35518;SDS011;21627;48.216;16.482;2022-10-16T06:14:46;123.70;;;54.03;;
35518;SDS011;21627;48.216;16.482;2022-10-16T06:17:14;127.72;;;55.38;;
35518;SDS011;21627;48.216;16.482;2022-10-16T06:19:41;134.32;;;58.42;;
35518;SDS011;21627;48.216;16.482;2022-10-16T06:22:08;126.95;;;59.13;;
35518;SDS011;21627;48.216;16.482;2022-10-16T06:24:36;124.30;;;54.28;;
35518;SDS011;21627;48.216;16.482;2022-10-16T06:27:03;113.15;;;54.72;;
35518;SDS011;21627;48.216;16.482;2022-10-16T06:29:31;123.07;;;54.67;;
35518;SDS011;21627;48.216;16.482;2022-10-16T06:31:58;109.78;;;51.20;;
35518;SDS011;21627;48.216;16.482;2022-10-16T06:34:25;108.30;;;51.22;;
35518;SDS011;21627;48.216;16.482;2022-10-16T06:36:52;98.72;;;50.83;;
35518;SDS011;21627;48.216;16.482;2022-10-16T06:39:19;103.15;;;49.65;;
35518;SDS011;21627;48.216;16.482;2022-10-16T06:41:46;101.32;;;50.30;;
35518;SDS011;21627;48.216;16.482;2022-10-16T06:44:13;106.18;;;49.97;;
35518;SDS011;21627;48.216;16.482;2022-10-16T06:46:40;100.82;;;48.60;;
35518;SDS011;21627;48.216;16.482;2022-10-16T06:49:07;104.07;;;49.20;;
35518;SDS011;21627;48.216;16.482;2022-10-16T06:51:34;106.63;;;52.53;;
35518;SDS011;21627;48.216;16.482;2022-10-16T06:54:08;111.63;;;51.60;;
35518;SDS011;21627;48.216;16.482;2022-10-16T06:56:36;110.20;;;50.95;;
35518;SDS011;21627;48.216;16.482;2022-10-16T06:59:03;112.45;;;54.10;;
35518;SDS011;21627;48.216;16.482;2022-10-16T07:01:31;106.97;;;51.85;;
35518;SDS011;21627;48.216;16.482;2022-10-16T07:03:59;114.65;;;53.50;;
35518;SDS011;21627;48.216;16.482;2022-10-16T07:06:30;117.85;;;53.10;;
35518;SDS011;21627;48.216;16.482;2022-10-16T07:09:00;108.43;;;52.67;;
35518;SDS011;21627;48.216;16.482;2022-10-16T07:11:36;124.45;;;53.42;;
35518;SDS011;21627;48.216;16.482;2022-10-16T07:14:12;115.97;;;54.97;;
35518;SDS011;21627;48.216;16.482;2022-10-16T07:16:43;116.57;;;56.65;;
35518;SDS011;21627;48.216;16.482;2022-10-16T07:19:10;111.80;;;55.35;;
35518;SDS011;21627;48.216;16.482;2022-10-16T07:21:40;111.70;;;54.60;;
35518;SDS011;21627;48.216;16.482;2022-10-16T07:24:12;113.57;;;54.75;;
35518;SDS011;21627;48.216;16.482;2022-10-16T07:26:42;109.65;;;52.40;;
35518;SDS011;21627;48.216;16.482;2022-10-16T07:29:18;125.43;;;57.97;;
35518;SDS011;21627;48.216;16.482;2022-10-16T07:31:48;119.97;;;56.90;;
35518;SDS011;21627;48.216;16.482;2022-10-16T07:34:16;114.38;;;57.13;;
35518;SDS011;21627;48.216;16.482;2022-10-16T07:36:47;123.18;;;60.75;;
35518;SDS011;21627;48.216;16.482;2022-10-16T07:39:16;119.18;;;57.58;;
35518;SDS011;21627;48.216;16.482;2022-10-16T07:41:43;118.18;;;56.50;;
35518;SDS011;21627;48.216;16.482;2022-10-16T07:44:10;111.95;;;58.03;;
35518;SDS011;21627;48.216;16.482;2022-10-16T07:46:38;108.35;;;56.38;;
35518;SDS011;21627;48.216;16.482;2022-10-16T07:49:05;108.63;;;55.97;;
35518;SDS011;21627;48.216;16.482;2022-10-16T07:51:32;99.32;;;52.15;;
35518;SDS011;21627;48.216;16.482;2022-10-16T07:53:59;106.20;;;52.58;;
35518;SDS011;21627;48.216;16.482;2022-10-16T07:56:26;101.25;;;55.30;;
35518;SDS011;21627;48.216;16.482;2022-10-16T07:58:53;93.25;;;48.13;;
35518;SDS011;21627;48.216;16.482;2022-10-16T08:01:22;94.22;;;50.40;;
35518;SDS011;21627;48.216;16.482;2022-10-16T08:03:50;89.38;;;49.88;;
35518;SDS011;21627;48.216;16.482;2022-10-16T08:06:18;95.55;;;50.85;;
35518;SDS011;21627;48.216;16.482;2022-10-16T08:08:53;94.10;;;49.58;;
35518;SDS011;21627;48.216;16.482;2022-10-16T08:11:26;104.30;;;52.72;;
35518;SDS011;21627;48.216;16.482;2022-10-16T08:13:53;96.20;;;51.80;;
35518;SDS011;21627;48.216;16.482;2022-10-16T08:16:21;91.45;;;50.30;;
35518;SDS011;21627;48.216;16.482;2022-10-16T08:18:48;99.38;;;50.78;;
35518;SDS011;21627;48.216;16.482;2022-10-16T08:21:19;96.57;;;50.90;;
35518;SDS011;21627;48.216;16.482;2022-10-16T08:23:49;98.50;;;48.35;;
35518;SDS011;21627;48.216;16.482;2022-10-16T08:26:23;81.72;;;46.60;;
35518;SDS011;21627;48.216;16.482;2022-10-16T08:28:52;85.93;;;48.08;;
35518;SDS011;21627;48.216;16.482;2022-10-16T08:31:20;105.60;;;51.53;;
35518;SDS011;21627;48.216;16.482;2022-10-16T08:33:48;99.95;;;49.40;;
35518;SDS011;21627;48.216;16.482;2022-10-16T08:36:15;91.10;;;48.47;;
35518;SDS011;21627;48.216;16.482;2022-10-16T08:38:43;94.82;;;49.80;;
35518;SDS011;21627;48.216;16.482;2022-10-16T08:41:17;96.68;;;49.60;;
35518;SDS011;21627;48.216;16.482;2022-10-16T08:49:28;108.78;;;55.22;;
35518;SDS011;21627;48.216;16.482;2022-10-16T08:51:57;99.25;;;52.67;;
35518;SDS011;21627;48.216;16.482;2022-10-16T08:57:28;97.18;;;50.75;;
35518;SDS011;21627;48.216;16.482;2022-10-16T08:59:59;94.07;;;52.47;;
35518;SDS011;21627;48.216;16.482;2022-10-16T09:02:37;96.13;;;52.20;;
35518;SDS011;21627;48.216;16.482;2022-10-16T09:22:34;103.75;;;55.05;;
35518;SDS011;21627;48.216;16.482;2022-10-16T09:25:11;93.43;;;50.45;;
35518;SDS011;21627;48.216;16.482;2022-10-16T09:27:42;83.45;;;47.33;;
35518;SDS011;21627;48.216;16.482;2022-10-16T09:30:13;83.30;;;48.55;;
35518;SDS011;21627;48.216;16.482;2022-10-16T09:32:44;79.38;;;46.28;;
35518;SDS011;21627;48.216;16.482;2022-10-16T09:35:21;93.85;;;48.80;;
35518;SDS011;21627;48.216;16.482;2022-10-16T09:38:05;85.60;;;48.25;;
35518;SDS011;21627;48.216;16.482;2022-10-16T09:40:37;87.40;;;46.90;;
35518;SDS011;21627;48.216;16.482;2022-10-16T09:45:57;87.35;;;47.50;;
35518;SDS011;21627;48.216;16.482;2022-10-16T09:48:47;81.57;;;47.58;;
35518;SDS011;21627;48.216;16.482;2022-10-16T09:51:21;80.70;;;47.20;;
35518;SDS011;21627;48.216;16.482;2022-10-16T09:54:02;77.50;;;43.80;;
35518;SDS011;21627;48.216;16.482;2022-10-16T09:56:33;78.63;;;43.80;;
35518;SDS011;21627;48.216;16.482;2022-10-16T09:59:22;78.82;;;42.58;;
35518;SDS011;21627;48.216;16.482;2022-10-16T10:02:00;91.33;;;46.87;;
35518;SDS011;21627;48.216;16.482;2022-10-16T10:04:37;84.57;;;44.42;;
35518;SDS011;21627;48.216;16.482;2022-10-16T10:07:17;76.57;;;42.00;;
35518;SDS011;21627;48.216;16.482;2022-10-16T10:09:52;68.90;;;41.83;;
35518;SDS011;21627;48.216;16.482;2022-10-16T10:12:23;75.90;;;42.63;;
35518;SDS011;21627;48.216;16.482;2022-10-16T10:14:56;71.47;;;42.08;;
35518;SDS011;21627;48.216;16.482;2022-10-16T10:17:26;73.68;;;41.03;;
35518;SDS011;21627;48.216;16.482;2022-10-16T10:34:02;60.50;;;37.45;;
35518;SDS011;21627;48.216;16.482;2022-10-16T10:37:33;57.55;;;35.88;;
35518;SDS011;21627;48.216;16.482;2022-10-16T10:39:51;62.07;;;38.53;;
35518;SDS011;21627;48.216;16.482;2022-10-16T10:42:49;61.67;;;38.03;;
35518;SDS011;21627;48.216;16.482;2022-10-16T10:45:41;59.28;;;37.22;;
35518;SDS011;21627;48.216;16.482;2022-10-16T10:53:41;65.32;;;39.58;;
35518;SDS011;21627;48.216;16.482;2022-10-16T10:59:41;57.60;;;36.13;;
35518;SDS011;21627;48.216;16.482;2022-10-16T11:06:08;57.97;;;37.15;;
35518;SDS011;21627;48.216;16.482;2022-10-16T11:11:11;58.33;;;34.78;;
35518;SDS011;21627;48.216;16.482;2022-10-16T11:14:00;53.20;;;34.88;;
35518;SDS011;21627;48.216;16.482;2022-10-16T11:16:43;53.53;;;33.58;;
35518;SDS011;21627;48.216;16.482;2022-10-16T11:22:19;51.70;;;33.53;;
35518;SDS011;21627;48.216;16.482;2022-10-16T11:25:48;54.25;;;35.78;;
35518;SDS011;21627;48.216;16.482;2022-10-16T11:36:53;57.88;;;34.58;;
35518;SDS011;21627;48.216;16.482;2022-10-16T11:39:44;49.53;;;34.22;;
35518;SDS011;21627;48.216;16.482;2022-10-16T11:42:14;56.35;;;33.10;;
35518;SDS011;21627;48.216;16.482;2022-10-16T11:50:58;56.95;;;33.17;;
35518;SDS011;21627;48.216;16.482;2022-10-16T11:56:55;56.30;;;33.15;;
35518;SDS011;21627;48.216;16.482;2022-10-16T11:59:35;53.55;;;33.38;;
35518;SDS011;21627;48.216;16.482;2022-10-16T12:08:27;53.35;;;33.97;;
35518;SDS011;21627;48.216;16.482;2022-10-16T12:11:05;49.38;;;33.03;;
35518;SDS011;21627;48.216;16.482;2022-10-16T12:19:45;53.25;;;32.72;;
35518;SDS011;21627;48.216;16.482;2022-10-16T12:22:48;58.80;;;33.15;;
35518;SDS011;21627;48.216;16.482;2022-10-16T12:25:36;56.80;;;34.97;;
35518;SDS011;21627;48.216;16.482;2022-10-16T12:30:42;48.58;;;32.38;;
35518;SDS011;21627;48.216;16.482;2022-10-16T12:33:28;52.15;;;32.78;;
35518;SDS011;21627;48.216;16.482;2022-10-16T12:36:01;46.70;;;31.17;;
35518;SDS011;21627;48.216;16.482;2022-10-16T12:38:52;43.92;;;29.83;;
35518;SDS011;21627;48.216;16.482;2022-10-16T12:41:30;50.42;;;31.83;;
35518;SDS011;21627;48.216;16.482;2022-10-16T12:44:04;47.78;;;31.35;;
35518;SDS011;21627;48.216;16.482;2022-10-16T12:51:39;44.20;;;29.20;;
35518;SDS011;21627;48.216;16.482;2022-10-16T12:54:12;46.08;;;30.40;;
35518;SDS011;21627;48.216;16.482;2022-10-16T13:23:05;42.45;;;26.25;;
35518;SDS011;21627;48.216;16.482;2022-10-16T13:28:48;36.53;;;25.63;;
35518;SDS011;21627;48.216;16.482;2022-10-16T13:31:21;35.55;;;24.70;;
35518;SDS011;21627;48.216;16.482;2022-10-16T13:33:51;41.45;;;26.35;;
35518;SDS011;21627;48.216;16.482;2022-10-16T13:36:26;34.50;;;24.05;;
35518;SDS011;21627;48.216;16.482;2022-10-16T13:42:06;41.95;;;24.27;;
35518;SDS011;21627;48.216;16.482;2022-10-16T13:44:42;34.47;;;24.63;;
35518;SDS011;21627;48.216;16.482;2022-10-16T13:47:17;38.95;;;24.98;;
35518;SDS011;21627;48.216;16.482;2022-10-16T13:50:05;37.90;;;23.88;;
35518;SDS011;21627;48.216;16.482;2022-10-16T13:52:37;35.22;;;23.50;;
35518;SDS011;21627;48.216;16.482;2022-10-16T13:55:12;35.47;;;23.33;;
35518;SDS011;21627;48.216;16.482;2022-10-16T13:57:43;37.35;;;23.83;;
35518;SDS011;21627;48.216;16.482;2022-10-16T14:00:17;40.03;;;24.80;;
35518;SDS011;21627;48.216;16.482;2022-10-16T14:02:49;33.30;;;22.83;;
35518;SDS011;21627;48.216;16.482;2022-10-16T14:05:21;32.72;;;23.85;;
35518;SDS011;21627;48.216;16.482;2022-10-16T14:07:49;34.83;;;24.15;;
35518;SDS011;21627;48.216;16.482;2022-10-16T14:10:20;42.15;;;24.58;;
35518;SDS011;21627;48.216;16.482;2022-10-16T14:13:03;34.72;;;23.55;;
35518;SDS011;21627;48.216;16.482;2022-10-16T14:15:34;31.05;;;23.13;;
35518;SDS011;21627;48.216;16.482;2022-10-16T14:18:02;38.35;;;22.83;;
35518;SDS011;21627;48.216;16.482;2022-10-16T14:20:31;31.30;;;22.27;;
35518;SDS011;21627;48.216;16.482;2022-10-16T14:25:52;33.85;;;22.40;;
35518;SDS011;21627;48.216;16.482;2022-10-16T14:28:20;29.98;;;22.58;;
35518;SDS011;21627;48.216;16.482;2022-10-16T14:30:53;36.50;;;22.45;;
35518;SDS011;21627;48.216;16.482;2022-10-16T14:33:24;38.00;;;22.90;;
35518;SDS011;21627;48.216;16.482;2022-10-16T14:38:39;31.35;;;21.95;;
35518;SDS011;21627;48.216;16.482;2022-10-16T14:41:08;32.25;;;22.10;;
35518;SDS011;21627;48.216;16.482;2022-10-16T14:43:37;31.33;;;21.83;;
35518;SDS011;21627;48.216;16.482;2022-10-16T14:52:12;32.95;;;21.35;;
35518;SDS011;21627;48.216;16.482;2022-10-16T14:54:40;30.23;;;20.75;;
35518;SDS011;21627;48.216;16.482;2022-10-16T14:57:15;35.78;;;21.13;;
35518;SDS011;21627;48.216;16.482;2022-10-16T14:59:46;30.10;;;22.27;;
35518;SDS011;21627;48.216;16.482;2022-10-16T15:04:48;30.25;;;21.33;;
35518;SDS011;21627;48.216;16.482;2022-10-16T15:07:16;32.92;;;21.35;;
35518;SDS011;21627;48.216;16.482;2022-10-16T15:09:43;31.45;;;20.23;;
35518;SDS011;21627;48.216;16.482;2022-10-16T15:12:15;30.52;;;20.88;;
35518;SDS011;21627;48.216;16.482;2022-10-16T15:14:42;35.88;;;20.85;;
35518;SDS011;21627;48.216;16.482;2022-10-16T15:17:10;32.58;;;20.77;;
35518;SDS011;21627;48.216;16.482;2022-10-16T15:19:37;31.98;;;21.13;;
35518;SDS011;21627;48.216;16.482;2022-10-16T15:22:04;29.20;;;21.08;;
35518;SDS011;21627;48.216;16.482;2022-10-16T15:24:32;30.80;;;21.10;;
35518;SDS011;21627;48.216;16.482;2022-10-16T15:26:59;31.75;;;21.00;;
35518;SDS011;21627;48.216;16.482;2022-10-16T15:29:26;32.53;;;21.10;;
35518;SDS011;21627;48.216;16.482;2022-10-16T15:31:53;28.75;;;20.48;;
35518;SDS011;21627;48.216;16.482;2022-10-16T15:34:20;31.55;;;21.20;;
35518;SDS011;21627;48.216;16.482;2022-10-16T15:36:47;34.00;;;21.52;;
35518;SDS011;21627;48.216;16.482;2022-10-16T15:39:16;32.80;;;22.27;;
35518;SDS011;21627;48.216;16.482;2022-10-16T15:41:45;33.25;;;22.13;;
35518;SDS011;21627;48.216;16.482;2022-10-16T15:44:17;32.20;;;21.75;;
35518;SDS011;21627;48.216;16.482;2022-10-16T15:46:45;31.58;;;20.90;;
35518;SDS011;21627;48.216;16.482;2022-10-16T15:49:13;36.08;;;22.45;;
35518;SDS011;21627;48.216;16.482;2022-10-16T15:51:41;30.20;;;20.20;;
35518;SDS011;21627;48.216;16.482;2022-10-16T15:54:08;37.25;;;22.25;;
35518;SDS011;21627;48.216;16.482;2022-10-16T15:56:36;33.45;;;21.17;;
35518;SDS011;21627;48.216;16.482;2022-10-16T15:59:04;29.60;;;20.83;;
35518;SDS011;21627;48.216;16.482;2022-10-16T16:01:35;31.95;;;20.65;;
35518;SDS011;21627;48.216;16.482;2022-10-16T16:04:03;34.28;;;20.45;;
35518;SDS011;21627;48.216;16.482;2022-10-16T16:06:50;38.60;;;21.77;;
35518;SDS011;21627;48.216;16.482;2022-10-16T16:09:18;31.40;;;21.20;;
35518;SDS011;21627;48.216;16.482;2022-10-16T16:11:45;29.02;;;19.80;;
35518;SDS011;21627;48.216;16.482;2022-10-16T16:14:13;34.05;;;21.58;;
35518;SDS011;21627;48.216;16.482;2022-10-16T16:16:40;31.25;;;21.08;;
35518;SDS011;21627;48.216;16.482;2022-10-16T16:19:09;34.50;;;20.15;;
35518;SDS011;21627;48.216;16.482;2022-10-16T16:21:37;32.30;;;22.52;;
35518;SDS011;21627;48.216;16.482;2022-10-16T16:24:05;31.38;;;20.58;;
35518;SDS011;21627;48.216;16.482;2022-10-16T16:26:35;35.65;;;21.88;;
35518;SDS011;21627;48.216;16.482;2022-10-16T16:29:05;31.77;;;21.20;;
35518;SDS011;21627;48.216;16.482;2022-10-16T16:31:33;32.22;;;21.90;;
35518;SDS011;21627;48.216;16.482;2022-10-16T16:34:01;30.23;;;20.90;;
35518;SDS011;21627;48.216;16.482;2022-10-16T16:36:29;31.00;;;21.45;;
35518;SDS011;21627;48.216;16.482;2022-10-16T16:38:57;31.75;;;21.45;;
35518;SDS011;21627;48.216;16.482;2022-10-16T16:41:25;33.13;;;21.75;;
35518;SDS011;21627;48.216;16.482;2022-10-16T16:43:55;35.65;;;21.75;;
35518;SDS011;21627;48.216;16.482;2022-10-16T16:46:30;34.80;;;22.65;;
35518;SDS011;21627;48.216;16.482;2022-10-16T16:49:00;34.70;;;21.73;;
35518;SDS011;21627;48.216;16.482;2022-10-16T16:51:28;34.90;;;21.83;;
35518;SDS011;21627;48.216;16.482;2022-10-16T16:53:56;34.08;;;22.30;;
35518;SDS011;21627;48.216;16.482;2022-10-16T16:56:24;33.72;;;21.65;;
35518;SDS011;21627;48.216;16.482;2022-10-16T16:58:53;39.90;;;24.25;;
35518;SDS011;21627;48.216;16.482;2022-10-16T17:01:23;39.85;;;26.88;;
35518;SDS011;21627;48.216;16.482;2022-10-16T17:03:53;42.83;;;26.10;;
35518;SDS011;21627;48.216;16.482;2022-10-16T17:06:24;38.28;;;24.55;;
35518;SDS011;21627;48.216;16.482;2022-10-16T17:08:56;35.97;;;24.50;;